Metar Aviation Weather Data     LEVC Valencia Airport



Temperature
16°C Temperature
14°C Dewpoint
88% Humidity



Wind
13 KM/H
8 MPH
4 M/S
7 KTS



230°
SW
Current Conditions

Clear Clear
Pressure 1017.92 (hPa) - 30.06 (inHg)
Visibility 6.2 (mile) - 10 (km)
Airport
Airport-code LEVC

Location: Valencia Airport
Distance: 18 (km)

Metar:
LEVC 230530Z 23007KT CAVOK 16/14 Q1018 NOSIG

Time: 23-10-2020 07:30 CEST

Follow @meteolliria2013